Time;durP1;ratioP1;P1;durP2;ratioP2;P2;SDS_P1;SDS_P2;PMS_P1;PMS_P2;Temp;Humidity;BMP_temperature;BMP_pressure;BME280_temperature;BME280_humidity;BME280_pressure;Samples;Min_cycle;Max_cycle;Signal;HPM_P1;HPM_P2
2024/03/18 00:00:14;;;;;;;3.47;1.73;;;;;;;1.15;77.24;100591.41;5053686;28;20216;-69
2024/03/18 00:02:44;;;;;;;2.03;1.70;;;;;;;1.11;77.07;100594.63;5049452;28;20209;-70
2024/03/18 00:05:12;;;;;;;4.60;1.67;;;;;;;1.05;77.63;100586.78;5049189;28;20224;-69
2024/03/18 00:07:40;;;;;;;2.17;1.40;;;;;;;1.02;77.82;100585.00;5050882;28;20209;-68
2024/03/18 00:10:09;;;;;;;2.83;1.37;;;;;;;1.03;78.00;100590.94;5048021;28;20256;-71
2024/03/18 00:12:37;;;;;;;2.37;1.60;;;;;;;1.03;78.15;100583.31;5048129;28;20209;-69
2024/03/18 00:15:06;;;;;;;2.57;1.73;;;;;;;0.99;78.54;100584.88;5053535;28;20625;-68
2024/03/18 00:17:34;;;;;;;3.13;1.50;;;;;;;1.01;78.78;100582.44;5047261;28;20202;-68
2024/03/18 00:20:05;;;;;;;1.60;1.50;;;;;;;0.99;78.82;100578.97;5041431;28;20209;-67
2024/03/18 00:22:32;;;;;;;3.30;1.70;;;;;;;1.02;79.36;100589.22;5048695;28;20672;-68
2024/03/18 00:24:59;;;;;;;2.97;1.70;;;;;;;1.04;79.75;100585.09;5036707;28;20209;-69
2024/03/18 00:27:26;;;;;;;1.60;1.50;;;;;;;1.06;79.48;100583.44;5048929;28;20212;-68
2024/03/18 00:29:53;;;;;;;2.17;1.50;;;;;;;1.05;79.74;100579.19;5049860;28;20210;-71
2024/03/18 00:32:20;;;;;;;3.57;1.40;;;;;;;1.05;80.24;100579.19;5044919;28;20656;-69
2024/03/18 00:34:47;;;;;;;2.37;1.90;;;;;;;1.07;79.23;100580.09;5045174;28;20244;-66
2024/03/18 00:37:15;;;;;;;2.13;1.57;;;;;;;1.02;79.54;100572.31;5049415;28;20270;-70
2024/03/18 00:39:43;;;;;;;2.40;1.80;;;;;;;1.01;79.88;100573.13;5043498;28;20698;-67
2024/03/18 00:42:09;;;;;;;3.63;1.40;;;;;;;1.02;79.61;100571.47;5052292;28;20205;-70
2024/03/18 00:44:36;;;;;;;1.70;1.37;;;;;;;1.02;79.84;100566.38;5049502;28;20201;-67
2024/03/18 00:47:03;;;;;;;3.03;1.53;;;;;;;1.04;79.33;100567.31;5045995;28;20229;-67
2024/03/18 00:49:31;;;;;;;1.80;1.37;;;;;;;1.05;79.34;100571.56;5053056;28;20209;-67
2024/03/18 00:51:58;;;;;;;1.70;1.60;;;;;;;1.04;79.86;100564.78;5052506;28;20656;-67
2024/03/18 00:54:26;;;;;;;1.83;1.63;;;;;;;1.00;78.89;100552.81;5050616;28;20228;-66
2024/03/18 00:56:54;;;;;;;3.00;1.70;;;;;;;0.96;79.84;100554.38;5063234;28;20243;-68
2024/03/18 00:59:20;;;;;;;1.87;1.50;;;;;;;0.92;80.32;100553.41;5072799;28;20204;-66
2024/03/18 01:01:47;;;;;;;3.00;1.30;;;;;;;0.92;80.01;100547.44;5064512;28;20295;-67
2024/03/18 01:04:14;;;;;;;3.20;1.57;;;;;;;0.90;80.17;100552.47;5064168;28;20263;-68
2024/03/18 01:06:41;;;;;;;4.23;1.63;;;;;;;0.92;80.06;100545.78;5072021;28;20220;-68
2024/03/18 01:09:09;;;;;;;3.60;1.77;;;;;;;0.96;80.30;100545.06;5072567;28;20219;-68
2024/03/18 01:11:37;;;;;;;4.70;1.90;;;;;;;1.05;80.39;100549.59;5070472;28;20223;-67
2024/03/18 01:14:04;;;;;;;2.20;1.80;;;;;;;1.07;79.91;100544.56;5070137;28;20290;-68
2024/03/18 01:16:31;;;;;;;2.40;1.60;;;;;;;1.03;78.76;100541.09;5072384;28;20736;-68
2024/03/18 01:18:59;;;;;;;4.03;1.50;;;;;;;1.01;79.23;100545.22;5070524;28;20216;-68
2024/03/18 01:21:28;;;;;;;2.73;1.50;;;;;;;0.99;78.83;100534.16;5069687;28;20217;-68
2024/03/18 01:23:55;;;;;;;2.17;1.60;;;;;;;0.95;79.58;100535.72;5072144;28;20205;-70
2024/03/18 01:26:21;;;;;;;2.87;1.50;;;;;;;0.96;79.95;100542.53;5068332;28;20261;-67
2024/03/18 01:28:50;;;;;;;2.30;1.70;;;;;;;0.93;80.18;100529.75;5061739;28;20200;-67
2024/03/18 01:31:18;;;;;;;3.50;1.43;;;;;;;0.98;79.95;100527.34;5061335;28;20212;-68
2024/03/18 01:33:45;;;;;;;1.13;1.03;;;;;;;1.01;80.12;100524.06;5071026;28;20228;-67
2024/03/18 01:36:12;;;;;;;2.30;1.60;;;;;;;1.08;80.20;100529.41;5072707;28;20578;-68
2024/03/18 01:38:39;;;;;;;3.30;1.70;;;;;;;1.09;79.33;100528.59;5067310;28;20270;-67
2024/03/18 01:41:06;;;;;;;3.03;1.33;;;;;;;1.10;79.38;100525.22;5072236;28;20216;-68
2024/03/18 01:43:36;;;;;;;2.67;1.63;;;;;;;1.02;79.35;100519.03;5072153;28;20261;-67
2024/03/18 01:46:16;;;;;;;3.03;1.57;;;;;;;1.01;79.80;100526.59;5070807;28;20691;-68
2024/03/18 01:48:44;;;;;;;1.93;1.40;;;;;;;1.01;79.16;100526.59;5071590;28;20211;-66
2024/03/18 01:51:12;;;;;;;3.63;1.67;;;;;;;1.01;79.55;100527.47;5070302;28;20220;-67
2024/03/18 01:53:39;;;;;;;2.40;1.30;;;;;;;1.02;79.31;100529.19;5070784;28;20227;-68
2024/03/18 01:56:09;;;;;;;2.13;1.60;;;;;;;1.05;80.21;100523.38;5072399;28;20232;-67
2024/03/18 01:58:38;;;;;;;2.73;1.40;;;;;;;1.05;79.29;100523.38;5066418;28;20222;-68
2024/03/18 02:01:07;;;;;;;1.67;1.40;;;;;;;1.05;79.27;100520.81;5066500;28;20213;-68
2024/03/18 02:03:35;;;;;;;2.93;1.80;;;;;;;1.05;79.39;100529.28;5067915;28;20212;-68
2024/03/18 02:06:02;;;;;;;2.13;1.50;;;;;;;1.07;80.37;100522.63;5068936;28;20213;-67
2024/03/18 02:08:29;;;;;;;1.93;1.70;;;;;;;1.09;79.86;100531.13;5067973;28;20213;-68
2024/03/18 02:10:56;;;;;;;3.90;1.53;;;;;;;1.09;79.15;100518.44;5057099;28;20310;-67
2024/03/18 02:13:23;;;;;;;1.63;1.10;;;;;;;1.06;79.83;100523.41;5067788;28;20213;-67
2024/03/18 02:15:50;;;;;;;1.90;1.47;;;;;;;1.02;80.09;100524.09;5065151;28;20281;-68
2024/03/18 02:18:18;;;;;;;2.40;1.57;;;;;;;1.03;81.52;100532.59;5072230;28;21622;-67
2024/03/18 02:20:45;;;;;;;1.80;1.60;;;;;;;1.00;80.70;100528.28;5072475;28;20209;-67
2024/03/18 02:23:14;;;;;;;2.17;1.77;;;;;;;1.01;82.28;100521.53;5069348;28;20213;-67
2024/03/18 02:25:42;;;;;;;3.13;1.60;;;;;;;1.06;82.53;100522.53;5074105;28;20209;-68
2024/03/18 02:28:09;;;;;;;3.33;1.60;;;;;;;1.08;81.68;100518.41;5075802;28;20584;-68
2024/03/18 02:30:36;;;;;;;1.93;1.80;;;;;;;1.07;82.09;100511.56;5072613;28;20682;-67
2024/03/18 02:33:03;;;;;;;3.80;2.27;;;;;;;1.02;82.52;100513.09;5073661;28;20204;-69
2024/03/18 02:35:30;;;;;;;2.53;1.80;;;;;;;0.96;82.49;100522.25;5073120;28;20278;-67
2024/03/18 02:37:57;;;;;;;2.47;1.60;;;;;;;0.92;83.40;100512.81;5072446;28;20309;-68
2024/03/18 02:40:25;;;;;;;2.93;1.80;;;;;;;0.92;83.92;100516.97;5070076;28;20262;-67
2024/03/18 02:42:53;;;;;;;1.63;1.53;;;;;;;0.86;82.77;100507.50;5073947;28;20197;-68
2024/03/18 02:45:20;;;;;;;1.90;1.70;;;;;;;0.81;83.47;100511.56;5075478;28;20209;-68
2024/03/18 02:47:46;;;;;;;2.47;1.87;;;;;;;0.80;84.61;100507.28;5071903;28;20635;-67
2024/03/18 02:50:17;;;;;;;3.13;1.87;;;;;;;0.79;83.84;100507.25;5069050;28;20644;-67
2024/03/18 02:52:44;;;;;;;2.83;1.80;;;;;;;0.80;84.52;100511.50;5067582;28;20734;-68
2024/03/18 02:55:11;;;;;;;2.27;1.80;;;;;;;0.79;83.48;100508.09;5073769;28;20274;-68
2024/03/18 02:57:40;;;;;;;2.47;1.60;;;;;;;0.75;84.45;100503.72;5057509;28;20629;-68
2024/03/18 03:00:08;;;;;;;2.67;1.90;;;;;;;0.74;84.75;100494.41;5060136;28;20213;-67
2024/03/18 03:02:35;;;;;;;2.87;1.83;;;;;;;0.77;85.17;100501.22;5071383;28;20224;-67
2024/03/18 03:05:02;;;;;;;3.03;1.80;;;;;;;0.76;85.04;100496.97;5073807;28;20201;-67
2024/03/18 03:07:28;;;;;;;3.93;1.90;;;;;;;0.67;84.56;100495.84;5070329;28;20208;-67
2024/03/18 03:09:55;;;;;;;1.90;1.50;;;;;;;0.66;85.06;100494.13;5045339;28;20213;-67
2024/03/18 03:12:23;;;;;;;1.93;1.77;;;;;;;0.58;84.80;100490.44;5054728;28;20210;-68
2024/03/18 03:14:51;;;;;;;3.27;1.80;;;;;;;0.58;85.60;100490.44;5055822;28;20217;-68
2024/03/18 03:17:19;;;;;;;3.10;1.70;;;;;;;0.58;85.43;100487.91;5054375;28;20216;-68
2024/03/18 03:19:46;;;;;;;2.23;1.87;;;;;;;0.55;85.56;100494.53;5065188;28;20221;-67
2024/03/18 03:22:13;;;;;;;4.07;2.43;;;;;;;0.52;85.61;100490.25;5064283;28;20613;-68
2024/03/18 03:24:40;;;;;;;2.97;1.87;;;;;;;0.52;86.11;100491.91;5054180;28;20221;-67
2024/03/18 03:27:07;;;;;;;2.83;2.23;;;;;;;0.48;86.46;100480.81;5057929;28;20224;-67
2024/03/18 03:29:34;;;;;;;2.27;2.07;;;;;;;0.44;85.83;100484.91;5055193;28;20216;-67
2024/03/18 03:32:02;;;;;;;4.57;2.30;;;;;;;0.42;85.84;100483.97;5062754;28;20201;-67
2024/03/18 03:34:29;;;;;;;2.50;2.30;;;;;;;0.39;86.07;100478.78;5058781;28;20233;-68
2024/03/18 03:36:56;;;;;;;2.70;2.00;;;;;;;0.38;86.95;100477.06;5061947;28;20612;-68
2024/03/18 03:39:24;;;;;;;2.83;2.10;;;;;;;0.39;87.75;100483.00;5065774;28;20212;-67
2024/03/18 03:41:51;;;;;;;5.20;2.30;;;;;;;0.42;86.92;100472.97;5058877;28;20701;-67
2024/03/18 03:44:18;;;;;;;2.90;2.37;;;;;;;0.43;86.89;100480.63;5063113;28;20235;-67
2024/03/18 03:46:45;;;;;;;4.13;2.10;;;;;;;0.45;86.27;100480.69;5061345;28;20262;-67
2024/03/18 03:49:13;;;;;;;2.40;1.70;;;;;;;0.48;86.58;100478.25;5066250;28;20212;-67
2024/03/18 03:51:40;;;;;;;2.33;1.97;;;;;;;0.53;86.71;100480.97;5055187;28;20587;-67
2024/03/18 03:54:07;;;;;;;3.33;2.10;;;;;;;0.57;86.27;100480.25;5065637;28;20270;-67
2024/03/18 03:56:34;;;;;;;2.57;2.10;;;;;;;0.60;85.93;100475.28;5062165;28;21686;-67
2024/03/18 03:59:01;;;;;;;2.30;1.80;;;;;;;0.59;85.76;100474.44;5075569;28;20200;-66
2024/03/18 04:01:28;;;;;;;2.50;2.00;;;;;;;0.59;85.44;100474.44;5075299;28;20220;-67
2024/03/18 04:03:55;;;;;;;2.57;2.20;;;;;;;0.59;85.27;100476.09;5076965;28;20208;-67
2024/03/18 04:06:23;;;;;;;2.27;2.07;;;;;;;0.59;85.13;100482.03;5061151;28;20208;-67
2024/03/18 04:08:50;;;;;;;3.93;2.50;;;;;;;0.58;85.63;100474.38;5071782;28;20300;-66
2024/03/18 04:11:17;;;;;;;3.97;2.27;;;;;;;0.55;86.55;100475.09;5080027;28;20201;-65
2024/03/18 04:13:45;;;;;;;3.33;2.47;;;;;;;0.51;86.12;100478.34;5077501;28;20283;-67
2024/03/18 04:16:14;;;;;;;2.50;2.30;;;;;;;0.53;87.31;100481.81;5079606;28;20733;-66
2024/03/18 04:18:42;;;;;;;3.17;2.27;;;;;;;0.53;87.08;100473.34;5072557;28;20216;-67
2024/03/18 04:21:09;;;;;;;3.23;2.33;;;;;;;0.50;87.75;100486.78;5075646;28;20708;-66
2024/03/18 04:23:38;;;;;;;2.53;1.93;;;;;;;0.48;88.58;100479.13;5068646;28;20683;-68
2024/03/18 04:26:06;;;;;;;3.57;2.07;;;;;;;0.48;87.93;100474.06;5070819;28;20583;-67
2024/03/18 04:28:34;;;;;;;4.63;2.50;;;;;;;0.44;88.58;100478.94;5069746;28;20262;-67
2024/03/18 04:31:05;;;;;;;3.83;2.40;;;;;;;0.42;87.99;100473.81;5080134;28;20200;-67
2024/03/18 04:33:32;;;;;;;4.50;2.40;;;;;;;0.41;88.50;100477.19;5073694;28;20290;-67
2024/03/18 04:35:59;;;;;;;2.47;2.23;;;;;;;0.36;89.65;100473.59;5069911;28;20235;-67
2024/03/18 04:38:26;;;;;;;2.87;2.33;;;;;;;0.39;89.50;100473.72;5074807;28;20283;-66
2024/03/18 04:40:55;;;;;;;2.47;2.10;;;;;;;0.38;89.26;100476.19;5073761;28;20205;-68
2024/03/18 04:43:23;;;;;;;2.90;2.50;;;;;;;0.39;89.84;100480.44;5074695;28;20216;-65
2024/03/18 04:45:50;;;;;;;3.10;2.40;;;;;;;0.40;89.96;100480.50;5078667;28;20265;-67
2024/03/18 04:48:15;;;;;;;4.60;2.43;;;;;;;0.39;89.24;100483.84;5076716;28;20215;-67
2024/03/18 04:50:42;;;;;;;4.10;3.07;;;;;;;0.35;89.96;100492.16;5076394;28;20210;-67
2024/03/18 04:53:09;;;;;;;2.77;2.07;;;;;;;0.32;89.80;100481.91;5080028;28;20215;-66
2024/03/18 04:55:36;;;;;;;6.17;2.63;;;;;;;0.33;89.63;100486.19;5072251;28;20237;-66
2024/03/18 04:58:05;;;;;;;3.53;2.50;;;;;;;0.34;90.12;100485.38;5074076;28;20212;-65
2024/03/18 05:00:33;;;;;;;4.50;2.60;;;;;;;0.37;89.85;100485.47;5074429;28;20212;-67
2024/03/18 05:03:00;;;;;;;3.20;2.50;;;;;;;0.39;89.47;100485.53;5084730;28;20208;-67
2024/03/18 05:05:27;;;;;;;3.70;2.07;;;;;;;0.41;89.99;100487.31;5081938;28;20216;-65
2024/03/18 05:07:54;;;;;;;5.70;2.50;;;;;;;0.45;90.35;100481.53;5080226;28;20220;-67
2024/03/18 05:10:23;;;;;;;3.37;2.07;;;;;;;0.44;89.28;100482.38;5073423;28;20263;-66
2024/03/18 05:12:51;;;;;;;5.03;2.10;;;;;;;0.46;90.06;100483.25;5077909;28;20586;-68
2024/03/18 05:15:20;;;;;;;2.83;2.40;;;;;;;0.50;90.26;100478.31;5072792;28;20228;-65
2024/03/18 05:17:47;;;;;;;2.40;2.20;;;;;;;0.47;89.84;100484.97;5072039;28;20592;-65
2024/03/18 05:20:15;;;;;;;4.13;2.40;;;;;;;0.46;89.87;100484.94;5079553;28;20217;-67
2024/03/18 05:22:42;;;;;;;3.50;2.67;;;;;;;0.42;90.50;100483.09;5071043;28;20223;-65
2024/03/18 05:25:12;;;;;;;4.17;2.20;;;;;;;0.42;90.81;100485.63;5071644;28;20207;-65
2024/03/18 05:27:40;;;;;;;4.40;2.50;;;;;;;0.45;90.70;100479.00;5074130;28;20897;-65
2024/03/18 05:30:08;;;;;;;4.60;2.63;;;;;;;0.40;91.09;100480.50;5072782;28;20556;-66
2024/03/18 05:32:36;;;;;;;5.57;2.60;;;;;;;0.39;90.69;100483.84;5066128;28;20255;-64
2024/03/18 05:35:04;;;;;;;3.90;2.50;;;;;;;0.41;90.91;100487.31;5067753;28;20229;-65
2024/03/18 05:37:31;;;;;;;3.03;2.57;;;;;;;0.44;91.15;100492.50;5067041;28;20552;-66
2024/03/18 05:39:58;;;;;;;5.80;2.50;;;;;;;0.45;90.41;100484.06;5073814;28;20211;-67
2024/03/18 05:42:25;;;;;;;3.07;2.40;;;;;;;0.47;91.49;100482.44;5068831;28;20208;-69
2024/03/18 05:44:52;;;;;;;6.83;2.57;;;;;;;0.51;91.67;100487.63;5082098;28;20208;-69
2024/03/18 05:47:19;;;;;;;3.80;2.53;;;;;;;0.53;91.73;100486.88;5081462;28;20208;-70
2024/03/18 05:49:47;;;;;;;2.87;2.13;;;;;;;0.53;91.20;100480.97;5074539;28;20201;-68
2024/03/18 05:52:14;;;;;;;4.47;2.67;;;;;;;0.53;91.37;100483.50;5077290;28;20212;-68
2024/03/18 05:54:41;;;;;;;4.33;2.47;;;;;;;0.55;91.00;100484.41;5075429;28;20213;-69
2024/03/18 05:57:09;;;;;;;2.77;2.20;;;;;;;0.57;91.28;100478.59;5074930;28;20247;-68
2024/03/18 05:59:36;;;;;;;2.80;2.13;;;;;;;0.59;91.14;100482.03;5074287;28;20242;-70
2024/03/18 06:02:03;;;;;;;4.53;2.80;;;;;;;0.63;91.61;100478.81;5069041;28;20610;-68
2024/03/18 06:04:30;;;;;;;9.27;6.70;;;;;;;0.70;92.17;100478.22;5075595;28;20655;-69
2024/03/18 06:07:01;;;;;;;2.63;2.40;;;;;;;0.74;91.42;100476.66;5066424;28;20262;-64
2024/03/18 06:09:29;;;;;;;3.37;2.33;;;;;;;0.77;91.29;100480.94;5073872;28;20212;-67
2024/03/18 06:11:56;;;;;;;5.23;2.37;;;;;;;0.78;91.14;100477.63;5087059;28;20211;-67
2024/03/18 06:14:23;;;;;;;2.30;2.10;;;;;;;0.77;90.99;100486.88;5077976;28;20279;-67
2024/03/18 06:16:50;;;;;;;3.43;2.53;;;;;;;0.78;90.66;100481.00;5081332;28;21683;-67
2024/03/18 06:19:18;;;;;;;2.67;2.13;;;;;;;0.77;91.03;100476.72;5082213;28;20208;-68
2024/03/18 06:21:46;;;;;;;5.00;2.60;;;;;;;0.74;90.52;100476.66;5076329;28;20215;-69
2024/03/18 06:24:23;;;;;;;4.37;2.10;;;;;;;0.72;90.91;100468.97;5075572;28;20651;-70
2024/03/18 06:26:49;;;;;;;3.53;2.23;;;;;;;0.79;91.49;100482.72;5080170;28;20199;-73
2024/03/18 06:29:16;;;;;;;4.23;2.43;;;;;;;0.85;91.78;100482.97;5087518;28;20219;-71
2024/03/18 06:31:45;;;;;;;3.03;2.07;;;;;;;0.91;91.74;100478.06;5082507;28;20578;-70
2024/03/18 06:34:12;;;;;;;2.30;2.10;;;;;;;0.88;90.24;100477.09;5085631;28;20689;-71
2024/03/18 06:36:39;;;;;;;6.30;2.37;;;;;;;0.85;90.92;100482.97;5086575;28;20233;-69
2024/03/18 06:39:08;;;;;;;3.83;2.53;;;;;;;0.82;89.96;100480.31;5082995;28;20215;-72
2024/03/18 06:41:38;;;;;;;3.70;2.60;;;;;;;0.80;90.38;100481.91;5077639;28;20204;-71
2024/03/18 06:44:05;;;;;;;6.37;3.57;;;;;;;0.82;91.61;100482.84;5067661;28;20225;-71
2024/03/18 06:46:31;;;;;;;3.00;2.60;;;;;;;0.87;91.84;100485.53;5083429;28;20203;-71
2024/03/18 06:48:59;;;;;;;3.57;2.80;;;;;;;0.91;91.72;100484.81;5075108;28;20217;-70
2024/03/18 06:51:26;;;;;;;2.90;2.60;;;;;;;0.92;91.61;100478.94;5075515;28;20205;-70
2024/03/18 06:53:52;;;;;;;4.47;2.53;;;;;;;0.95;90.85;100487.50;5065521;28;20212;-71
2024/03/18 06:56:21;;;;;;;3.63;2.77;;;;;;;0.96;90.10;100483.31;5078945;28;20251;-70
2024/03/18 06:58:50;;;;;;;4.37;2.80;;;;;;;0.92;91.00;100489.97;5074146;28;20262;-71
2024/03/18 07:01:17;;;;;;;2.93;2.60;;;;;;;0.96;90.44;100491.78;5073948;28;20213;-70
2024/03/18 07:03:46;;;;;;;3.00;2.70;;;;;;;1.00;91.64;100489.38;5073259;28;20212;-69
2024/03/18 07:06:13;;;;;;;3.80;2.33;;;;;;;1.05;91.65;100495.44;5074890;28;20574;-70
2024/03/18 07:08:41;;;;;;;7.40;2.97;;;;;;;1.07;90.84;100491.28;5080206;28;20200;-69
2024/03/18 07:11:09;;;;;;;3.10;2.37;;;;;;;1.09;90.99;100492.19;5074173;28;20220;-67
2024/03/18 07:13:37;;;;;;;4.73;2.80;;;;;;;1.08;90.26;100487.94;5070809;28;20213;-67
2024/03/18 07:16:06;;;;;;;5.23;2.50;;;;;;;1.13;90.40;100492.34;5072903;28;20223;-67
2024/03/18 07:18:33;;;;;;;4.03;2.27;;;;;;;1.16;90.58;100481.44;5074548;28;20208;-66
2024/03/18 07:21:00;;;;;;;2.80;2.50;;;;;;;1.19;90.38;100481.56;5077820;28;20216;-68
2024/03/18 07:23:27;;;;;;;4.00;2.80;;;;;;;1.23;90.17;100478.31;5068098;28;20212;-69
2024/03/18 07:25:54;;;;;;;3.70;2.30;;;;;;;1.26;89.96;100475.00;5076644;28;20209;-67
2024/03/18 07:28:21;;;;;;;4.60;2.97;;;;;;;1.30;89.79;100486.97;5073025;28;20212;-70
2024/03/18 07:30:48;;;;;;;4.57;2.77;;;;;;;1.32;90.78;100483.66;5072925;28;20265;-70
2024/03/18 07:33:17;;;;;;;3.33;2.53;;;;;;;1.39;90.50;100483.06;5089211;28;20198;-71
2024/03/18 07:35:47;;;;;;;3.47;2.77;;;;;;;1.41;89.83;100486.53;5082536;28;20223;-70
2024/03/18 07:38:14;;;;;;;4.17;2.73;;;;;;;1.43;90.26;100482.34;5078600;28;20209;-70
2024/03/18 07:40:41;;;;;;;5.03;2.70;;;;;;;1.45;89.45;100487.47;5079380;28;20215;-70
2024/03/18 07:43:11;;;;;;;5.70;3.00;;;;;;;1.47;89.97;100488.38;5078579;28;20208;-69
2024/03/18 07:45:39;;;;;;;5.70;2.90;;;;;;;1.51;89.59;100495.31;5065702;28;20209;-71
2024/03/18 07:48:07;;;;;;;2.73;2.43;;;;;;;1.52;89.53;100493.63;5074937;28;20547;-69
2024/03/18 07:50:36;;;;;;;5.50;3.13;;;;;;;1.54;89.80;100495.38;5075940;28;20205;-70
2024/03/18 07:53:04;;;;;;;2.87;2.60;;;;;;;1.56;89.91;100492.91;5074457;28;20209;-70
2024/03/18 07:55:32;;;;;;;5.53;3.10;;;;;;;1.59;89.69;100498.09;5070836;28;20226;-69
2024/03/18 07:58:00;;;;;;;3.67;2.87;;;;;;;1.56;89.64;100493.75;5074830;28;20208;-67
2024/03/18 08:00:27;;;;;;;3.27;2.97;;;;;;;1.60;89.75;100498.13;5077045;28;20218;-66
2024/03/18 08:02:54;;;;;;;4.33;3.00;;;;;;;1.61;89.42;100497.28;5074227;28;20575;-70
2024/03/18 08:05:21;;;;;;;3.93;3.00;;;;;;;1.69;89.29;100506.06;5067477;28;20209;-70
2024/03/18 08:07:49;;;;;;;3.67;2.90;;;;;;;1.69;88.38;100506.06;5075286;28;20208;-72
2024/03/18 08:10:16;;;;;;;3.67;3.30;;;;;;;1.70;88.73;100501.81;5075084;28;20216;-72
2024/03/18 08:12:52;;;;;;;3.83;3.17;;;;;;;1.72;89.23;100507.81;5073876;28;20215;-73
2024/03/18 08:15:19;;;;;;;4.27;3.40;;;;;;;1.77;88.54;100507.94;5075358;28;20207;-70
2024/03/18 08:17:46;;;;;;;4.33;2.97;;;;;;;1.80;88.50;100501.28;5073221;28;20224;-69
2024/03/18 08:20:13;;;;;;;4.80;3.30;;;;;;;1.89;88.40;100500.72;5071628;28;20636;-70
2024/03/18 08:22:40;;;;;;;4.63;3.37;;;;;;;1.98;89.30;100502.66;5071395;28;20259;-72
2024/03/18 08:25:09;;;;;;;4.73;3.20;;;;;;;2.03;88.64;100502.00;5074632;28;20222;-71
2024/03/18 08:27:37;;;;;;;4.47;3.20;;;;;;;2.08;88.00;100494.50;5070054;28;20679;-69
2024/03/18 08:30:06;;;;;;;4.17;3.23;;;;;;;2.12;88.29;100491.25;5074735;28;20213;-72
2024/03/18 08:32:33;;;;;;;4.77;3.70;;;;;;;2.16;88.39;100488.81;5074573;28;20209;-76
2024/03/18 08:35:00;;;;;;;7.57;3.50;;;;;;;2.17;87.37;100489.69;5075181;28;20204;-70
2024/03/18 08:37:27;;;;;;;5.97;3.80;;;;;;;2.18;86.66;100496.50;5077587;28;20229;-70
2024/03/18 08:39:55;;;;;;;3.90;3.40;;;;;;;2.17;86.92;100495.66;5074776;28;20216;-74
2024/03/18 08:42:24;;;;;;;6.60;3.77;;;;;;;2.23;86.69;100489.88;5070787;28;20217;-73
2024/03/18 08:44:51;;;;;;;5.57;3.60;;;;;;;2.25;87.28;100488.25;5072870;28;20216;-70
2024/03/18 08:47:20;;;;;;;4.13;3.53;;;;;;;2.20;86.47;100489.78;5076069;28;20197;-73
2024/03/18 08:49:47;;;;;;;4.57;3.47;;;;;;;2.18;85.63;100491.44;5079163;28;20204;-70
2024/03/18 08:52:15;;;;;;;6.23;4.00;;;;;;;2.19;87.31;100485.53;5075825;28;20757;-73
2024/03/18 08:54:42;;;;;;;4.47;3.20;;;;;;;2.24;87.61;100486.50;5074759;28;20636;-73
2024/03/18 08:57:09;;;;;;;4.33;3.43;;;;;;;2.39;86.94;100484.44;5072603;28;20240;-73
2024/03/18 08:59:39;;;;;;;4.10;3.37;;;;;;;2.43;85.97;100480.28;5074621;28;20679;-73
2024/03/18 09:02:09;;;;;;;3.73;3.30;;;;;;;2.53;86.85;100479.69;5056257;28;20197;-71
2024/03/18 09:04:36;;;;;;;6.00;4.00;;;;;;;2.62;85.24;100479.97;5053102;28;20212;-68
2024/03/18 09:07:03;;;;;;;4.17;3.13;;;;;;;2.66;84.86;100481.78;5055368;28;20202;-65
2024/03/18 09:09:33;;;;;;;6.93;4.90;;;;;;;2.74;85.94;100479.44;5053640;28;20721;-65
2024/03/18 09:12:01;;;;;;;3.00;2.73;;;;;;;2.79;84.61;100477.88;5048260;28;20201;-65
2024/03/18 09:14:29;;;;;;;3.57;3.27;;;;;;;2.89;84.87;100479.00;5058431;28;20216;-67
2024/03/18 09:17:01;;;;;;;3.70;3.07;;;;;;;2.96;84.72;100485.09;5048548;28;20225;-67
2024/03/18 09:19:29;;;;;;;3.93;3.53;;;;;;;2.98;83.64;100483.44;5057106;28;20207;-66
2024/03/18 09:21:56;;;;;;;4.73;3.20;;;;;;;2.96;83.77;100490.19;5053365;28;20218;-66
2024/03/18 09:24:23;;;;;;;4.07;3.63;;;;;;;2.91;83.21;100482.44;5052646;28;20266;-68
2024/03/18 09:26:51;;;;;;;5.40;3.40;;;;;;;2.96;84.41;100487.66;5055114;28;20367;-67
2024/03/18 09:29:18;;;;;;;3.43;2.90;;;;;;;3.00;84.31;100486.91;5053168;28;20209;-68
2024/03/18 09:31:45;;;;;;;3.33;2.97;;;;;;;3.08;84.44;100482.88;5053328;28;20216;-65
2024/03/18 09:34:17;;;;;;;3.93;3.00;;;;;;;3.13;84.57;100486.41;5053740;28;20213;-67
2024/03/18 09:36:43;;;;;;;3.70;2.83;;;;;;;3.19;83.88;100488.22;5057434;28;20692;-67
2024/03/18 09:39:10;;;;;;;4.13;3.10;;;;;;;3.15;83.38;100487.28;5054352;28;20224;-67
2024/03/18 09:41:40;;;;;;;3.87;2.90;;;;;;;3.08;84.30;100491.38;5052678;28;20216;-73
2024/03/18 09:44:13;;;;;;;3.57;3.20;;;;;;;3.06;85.06;100492.16;5055545;28;20209;-68
2024/03/18 09:46:40;;;;;;;5.20;4.13;;;;;;;3.05;85.07;100492.97;5051244;28;20262;-68
2024/03/18 09:49:15;;;;;;;5.63;4.10;;;;;;;3.01;85.75;100492.03;5050727;28;21193;-66
2024/03/18 09:51:45;;;;;;;5.60;4.27;;;;;;;2.96;85.76;100492.75;5051579;28;20216;-67
2024/03/18 09:54:18;;;;;;;4.30;3.07;;;;;;;2.94;85.63;100494.38;5049345;28;20218;-68
2024/03/18 09:56:45;;;;;;;3.87;3.47;;;;;;;2.88;85.80;100495.94;5058862;28;20236;-68
2024/03/18 09:59:13;;;;;;;3.70;3.40;;;;;;;2.86;86.71;100494.16;5071525;28;20272;-66
2024/03/18 10:01:40;;;;;;;3.23;2.90;;;;;;;2.79;86.66;100494.81;5074845;28;20212;-67
2024/03/18 10:04:07;;;;;;;3.70;3.30;;;;;;;2.75;86.49;100498.09;5075598;28;20208;-67
2024/03/18 10:06:35;;;;;;;3.77;2.83;;;;;;;2.71;87.26;100494.63;5073251;28;20216;-67
2024/03/18 10:09:03;;;;;;;4.63;3.07;;;;;;;2.77;87.18;100494.78;5072421;28;20217;-67
2024/03/18 10:11:30;;;;;;;3.27;2.83;;;;;;;2.81;87.35;100496.59;5075358;28;20212;-70
2024/03/18 10:13:57;;;;;;;4.37;3.40;;;;;;;2.89;87.11;100491.72;5076480;28;20212;-70
2024/03/18 10:16:24;;;;;;;3.20;2.73;;;;;;;2.96;87.75;100497.84;5068997;28;20236;-70
2024/03/18 10:18:51;;;;;;;5.13;4.00;;;;;;;3.02;87.33;100496.31;5068536;28;20220;-71
2024/03/18 10:21:18;;;;;;;11.87;7.77;;;;;;;3.05;86.93;100500.59;5071145;28;20224;-69
2024/03/18 10:23:50;;;;;;;3.50;2.90;;;;;;;3.08;87.04;100505.78;5073199;28;20235;-71
2024/03/18 10:26:18;;;;;;;3.80;2.83;;;;;;;3.09;86.51;100498.19;5051724;28;20209;-71
2024/03/18 10:28:45;;;;;;;3.13;2.83;;;;;;;3.06;85.87;100494.72;5075086;28;20209;-69
2024/03/18 10:31:15;;;;;;;4.10;2.87;;;;;;;3.00;86.11;100492.00;5075633;28;20208;-71
2024/03/18 10:33:45;;;;;;;3.80;2.87;;;;;;;2.96;87.42;100495.28;5071118;28;20557;-71
2024/03/18 10:36:18;;;;;;;3.10;2.77;;;;;;;2.89;85.96;100494.25;5081145;28;20212;-67
2024/03/18 10:38:45;;;;;;;3.97;3.57;;;;;;;2.83;86.89;100494.09;5076026;28;20209;-67
2024/03/18 10:41:16;;;;;;;4.47;3.87;;;;;;;2.82;88.24;100500.84;5072452;28;20212;-66
2024/03/18 10:43:44;;;;;;;5.33;2.90;;;;;;;2.80;87.46;100499.97;5073461;28;20232;-64
2024/03/18 10:46:14;;;;;;;6.20;3.20;;;;;;;2.82;88.81;100497.47;5073757;28;20204;-64
2024/03/18 10:48:42;;;;;;;3.60;3.30;;;;;;;2.80;88.19;100494.00;5092337;28;20212;-69
2024/03/18 10:51:13;;;;;;;3.67;3.20;;;;;;;2.85;88.33;100495.84;5077558;28;20762;-67
2024/03/18 10:53:42;;;;;;;4.60;3.50;;;;;;;2.90;88.47;100495.97;5079656;28;20656;-71
2024/03/18 10:56:09;;;;;;;5.27;3.77;;;;;;;2.94;89.03;100496.91;5072422;28;20249;-68
2024/03/18 10:58:38;;;;;;;5.30;3.67;;;;;;;2.94;89.11;100492.69;5071005;28;20703;-67
2024/03/18 11:01:05;;;;;;;3.97;3.57;;;;;;;2.98;88.23;100494.47;5078705;28;20655;-67
2024/03/18 11:03:32;;;;;;;6.37;4.13;;;;;;;3.01;88.96;100496.25;5073594;28;20207;-66
2024/03/18 11:05:59;;;;;;;4.87;4.13;;;;;;;3.03;88.28;100503.13;5081416;28;20209;-65
2024/03/18 11:08:27;;;;;;;6.60;4.20;;;;;;;2.97;87.13;100499.53;5074456;28;20255;-65
2024/03/18 11:10:56;;;;;;;6.47;4.57;;;;;;;2.90;88.59;100499.38;5079661;28;20220;-65
2024/03/18 11:13:33;;;;;;;4.90;3.83;;;;;;;2.93;89.21;100498.59;5075993;28;20212;-65
2024/03/18 11:16:06;;;;;;;4.97;3.87;;;;;;;2.98;89.43;100497.03;5074516;28;20219;-69
2024/03/18 11:18:34;;;;;;;4.90;4.03;;;;;;;2.98;88.91;100496.16;5075275;28;20282;-67
2024/03/18 11:21:03;;;;;;;4.77;3.80;;;;;;;2.93;87.96;100488.41;5080001;28;20319;-65
2024/03/18 11:23:31;;;;;;;5.53;4.07;;;;;;;2.90;88.40;100491.75;5081409;28;20212;-68
2024/03/18 11:26:04;;;;;;;5.87;3.87;;;;;;;2.88;89.16;100493.41;5075352;28;20212;-65
2024/03/18 11:28:35;;;;;;;3.93;3.53;;;;;;;2.82;88.84;100488.13;5072064;28;20215;-65
2024/03/18 11:31:06;;;;;;;6.07;3.57;;;;;;;2.81;89.77;100491.50;5080483;28;20732;-66
2024/03/18 11:33:36;;;;;;;3.93;3.40;;;;;;;2.81;89.23;100501.69;5080289;28;20226;-66
2024/03/18 11:36:04;;;;;;;3.57;3.13;;;;;;;2.77;89.03;100492.25;5079964;28;20216;-68